sensor_id;sensor_type;location;lat;lon;timestamp;P1;durP1;ratioP1;P2;durP2;ratioP2
7983;SDS011;4037;47.980;10.172;2024-03-17T00:00:04;1.83;;;1.60;;
7983;SDS011;4037;47.980;10.172;2024-03-17T00:02:31;2.00;;;1.40;;
7983;SDS011;4037;47.980;10.172;2024-03-17T00:04:57;2.77;;;1.47;;
7983;SDS011;4037;47.980;10.172;2024-03-17T00:07:23;2.70;;;1.60;;
7983;SDS011;4037;47.980;10.172;2024-03-17T00:09:49;1.57;;;1.47;;
7983;SDS011;4037;47.980;10.172;2024-03-17T00:12:15;1.77;;;1.37;;
7983;SDS011;4037;47.980;10.172;2024-03-17T00:14:41;1.60;;;1.50;;
7983;SDS011;4037;47.980;10.172;2024-03-17T00:17:07;2.60;;;2.20;;
7983;SDS011;4037;47.980;10.172;2024-03-17T00:19:33;2.40;;;1.57;;
7983;SDS011;4037;47.980;10.172;2024-03-17T00:22:00;2.17;;;1.67;;
7983;SDS011;4037;47.980;10.172;2024-03-17T00:24:26;2.77;;;2.00;;
7983;SDS011;4037;47.980;10.172;2024-03-17T00:26:59;3.37;;;1.70;;
7983;SDS011;4037;47.980;10.172;2024-03-17T00:29:25;2.83;;;2.00;;
7983;SDS011;4037;47.980;10.172;2024-03-17T00:31:53;5.70;;;2.73;;
7983;SDS011;4037;47.980;10.172;2024-03-17T00:34:19;3.07;;;2.10;;
7983;SDS011;4037;47.980;10.172;2024-03-17T00:36:45;2.67;;;2.17;;
7983;SDS011;4037;47.980;10.172;2024-03-17T00:39:11;3.10;;;2.17;;
7983;SDS011;4037;47.980;10.172;2024-03-17T00:41:37;2.13;;;2.00;;
7983;SDS011;4037;47.980;10.172;2024-03-17T00:44:03;2.20;;;2.00;;
7983;SDS011;4037;47.980;10.172;2024-03-17T00:46:31;2.80;;;2.47;;
7983;SDS011;4037;47.980;10.172;2024-03-17T00:48:58;2.00;;;1.80;;
7983;SDS011;4037;47.980;10.172;2024-03-17T00:51:25;2.47;;;2.00;;
7983;SDS011;4037;47.980;10.172;2024-03-17T00:53:51;3.30;;;2.07;;
7983;SDS011;4037;47.980;10.172;2024-03-17T00:56:17;2.13;;;1.93;;
7983;SDS011;4037;47.980;10.172;2024-03-17T00:58:43;3.03;;;1.97;;
7983;SDS011;4037;47.980;10.172;2024-03-17T01:01:12;3.40;;;2.03;;
7983;SDS011;4037;47.980;10.172;2024-03-17T01:03:38;3.30;;;2.37;;
7983;SDS011;4037;47.980;10.172;2024-03-17T01:06:04;3.33;;;2.87;;
7983;SDS011;4037;47.980;10.172;2024-03-17T01:08:31;3.27;;;2.33;;
7983;SDS011;4037;47.980;10.172;2024-03-17T01:10:57;3.70;;;2.60;;
7983;SDS011;4037;47.980;10.172;2024-03-17T01:13:23;3.10;;;2.70;;
7983;SDS011;4037;47.980;10.172;2024-03-17T01:15:52;3.87;;;2.47;;
7983;SDS011;4037;47.980;10.172;2024-03-17T01:18:18;2.97;;;2.57;;
7983;SDS011;4037;47.980;10.172;2024-03-17T01:20:45;2.90;;;2.43;;
7983;SDS011;4037;47.980;10.172;2024-03-17T01:23:11;3.70;;;3.40;;
7983;SDS011;4037;47.980;10.172;2024-03-17T01:25:38;3.07;;;2.57;;
7983;SDS011;4037;47.980;10.172;2024-03-17T01:28:04;4.37;;;2.43;;
7983;SDS011;4037;47.980;10.172;2024-03-17T01:30:31;3.17;;;2.53;;
7983;SDS011;4037;47.980;10.172;2024-03-17T01:32:57;2.60;;;2.40;;
7983;SDS011;4037;47.980;10.172;2024-03-17T01:35:25;2.63;;;2.43;;
7983;SDS011;4037;47.980;10.172;2024-03-17T01:37:51;3.03;;;2.30;;
7983;SDS011;4037;47.980;10.172;2024-03-17T01:40:17;4.13;;;3.13;;
7983;SDS011;4037;47.980;10.172;2024-03-17T01:42:43;2.70;;;2.50;;
7983;SDS011;4037;47.980;10.172;2024-03-17T01:47:38;2.77;;;2.47;;
7983;SDS011;4037;47.980;10.172;2024-03-17T01:50:04;3.10;;;2.77;;
7983;SDS011;4037;47.980;10.172;2024-03-17T01:52:33;3.53;;;2.80;;
7983;SDS011;4037;47.980;10.172;2024-03-17T01:54:59;2.90;;;2.60;;
7983;SDS011;4037;47.980;10.172;2024-03-17T01:57:25;3.23;;;2.93;;
7983;SDS011;4037;47.980;10.172;2024-03-17T01:59:52;5.83;;;3.13;;
7983;SDS011;4037;47.980;10.172;2024-03-17T02:02:18;4.73;;;3.40;;
7983;SDS011;4037;47.980;10.172;2024-03-17T02:04:44;4.80;;;3.67;;
7983;SDS011;4037;47.980;10.172;2024-03-17T02:07:10;6.17;;;3.87;;
7983;SDS011;4037;47.980;10.172;2024-03-17T02:09:36;8.43;;;4.30;;
7983;SDS011;4037;47.980;10.172;2024-03-17T02:12:02;7.73;;;4.97;;
7983;SDS011;4037;47.980;10.172;2024-03-17T02:14:28;6.10;;;4.90;;
7983;SDS011;4037;47.980;10.172;2024-03-17T02:16:54;5.53;;;4.70;;
7983;SDS011;4037;47.980;10.172;2024-03-17T02:19:20;5.73;;;4.07;;
7983;SDS011;4037;47.980;10.172;2024-03-17T02:21:46;7.87;;;3.13;;
7983;SDS011;4037;47.980;10.172;2024-03-17T02:24:12;4.50;;;3.40;;
7983;SDS011;4037;47.980;10.172;2024-03-17T02:26:38;5.23;;;3.57;;
7983;SDS011;4037;47.980;10.172;2024-03-17T02:29:04;3.87;;;3.40;;
7983;SDS011;4037;47.980;10.172;2024-03-17T02:31:30;3.57;;;3.07;;
7983;SDS011;4037;47.980;10.172;2024-03-17T02:33:56;4.20;;;3.80;;
7983;SDS011;4037;47.980;10.172;2024-03-17T02:36:22;3.40;;;3.10;;
7983;SDS011;4037;47.980;10.172;2024-03-17T02:38:48;4.17;;;3.30;;
7983;SDS011;4037;47.980;10.172;2024-03-17T02:41:32;3.67;;;3.23;;
7983;SDS011;4037;47.980;10.172;2024-03-17T02:43:58;4.20;;;3.50;;
7983;SDS011;4037;47.980;10.172;2024-03-17T02:46:24;5.00;;;3.70;;
7983;SDS011;4037;47.980;10.172;2024-03-17T02:48:51;11.53;;;3.67;;
7983;SDS011;4037;47.980;10.172;2024-03-17T02:51:18;5.70;;;3.80;;
7983;SDS011;4037;47.980;10.172;2024-03-17T02:53:44;3.67;;;3.37;;
7983;SDS011;4037;47.980;10.172;2024-03-17T02:56:11;5.10;;;3.27;;
7983;SDS011;4037;47.980;10.172;2024-03-17T02:58:37;4.83;;;3.53;;
7983;SDS011;4037;47.980;10.172;2024-03-17T03:01:04;4.67;;;3.70;;
7983;SDS011;4037;47.980;10.172;2024-03-17T03:03:31;4.70;;;3.40;;
7983;SDS011;4037;47.980;10.172;2024-03-17T03:05:57;4.30;;;3.60;;
7983;SDS011;4037;47.980;10.172;2024-03-17T03:08:23;3.63;;;3.30;;
7983;SDS011;4037;47.980;10.172;2024-03-17T03:10:50;3.40;;;3.10;;
7983;SDS011;4037;47.980;10.172;2024-03-17T03:13:16;4.93;;;3.17;;
7983;SDS011;4037;47.980;10.172;2024-03-17T03:15:42;5.30;;;3.70;;
7983;SDS011;4037;47.980;10.172;2024-03-17T03:18:08;3.97;;;3.57;;
7983;SDS011;4037;47.980;10.172;2024-03-17T03:20:34;3.90;;;3.50;;
7983;SDS011;4037;47.980;10.172;2024-03-17T03:23:00;4.87;;;3.23;;
7983;SDS011;4037;47.980;10.172;2024-03-17T03:25:27;5.17;;;3.57;;
7983;SDS011;4037;47.980;10.172;2024-03-17T03:27:53;4.23;;;3.63;;
7983;SDS011;4037;47.980;10.172;2024-03-17T03:30:22;4.23;;;3.77;;
7983;SDS011;4037;47.980;10.172;2024-03-17T03:32:48;7.70;;;4.00;;
7983;SDS011;4037;47.980;10.172;2024-03-17T03:35:14;5.17;;;3.73;;
7983;SDS011;4037;47.980;10.172;2024-03-17T03:37:41;5.00;;;3.93;;
7983;SDS011;4037;47.980;10.172;2024-03-17T03:40:07;6.80;;;3.97;;
7983;SDS011;4037;47.980;10.172;2024-03-17T03:42:52;6.33;;;4.57;;
7983;SDS011;4037;47.980;10.172;2024-03-17T03:45:18;10.43;;;4.80;;
7983;SDS011;4037;47.980;10.172;2024-03-17T03:47:45;4.97;;;3.90;;
7983;SDS011;4037;47.980;10.172;2024-03-17T03:50:12;5.60;;;3.93;;
7983;SDS011;4037;47.980;10.172;2024-03-17T03:52:38;2.90;;;2.67;;
7983;SDS011;4037;47.980;10.172;2024-03-17T03:55:07;3.33;;;2.87;;
7983;SDS011;4037;47.980;10.172;2024-03-17T03:57:39;4.27;;;2.90;;
7983;SDS011;4037;47.980;10.172;2024-03-17T04:00:06;3.87;;;3.27;;
7983;SDS011;4037;47.980;10.172;2024-03-17T04:02:40;6.00;;;3.20;;
7983;SDS011;4037;47.980;10.172;2024-03-17T04:05:07;3.87;;;2.73;;
7983;SDS011;4037;47.980;10.172;2024-03-17T04:07:33;3.37;;;3.07;;
7983;SDS011;4037;47.980;10.172;2024-03-17T04:09:59;3.37;;;3.00;;
7983;SDS011;4037;47.980;10.172;2024-03-17T04:12:26;4.13;;;3.17;;
7983;SDS011;4037;47.980;10.172;2024-03-17T04:14:53;4.47;;;3.33;;
7983;SDS011;4037;47.980;10.172;2024-03-17T04:17:20;5.30;;;3.00;;
7983;SDS011;4037;47.980;10.172;2024-03-17T04:19:47;3.43;;;2.90;;
7983;SDS011;4037;47.980;10.172;2024-03-17T04:22:16;4.17;;;3.43;;
7983;SDS011;4037;47.980;10.172;2024-03-17T04:24:45;3.83;;;2.90;;
7983;SDS011;4037;47.980;10.172;2024-03-17T04:27:12;4.47;;;3.10;;
7983;SDS011;4037;47.980;10.172;2024-03-17T04:29:38;4.47;;;2.73;;
7983;SDS011;4037;47.980;10.172;2024-03-17T04:32:05;4.10;;;3.33;;
7983;SDS011;4037;47.980;10.172;2024-03-17T04:34:31;3.00;;;2.70;;
7983;SDS011;4037;47.980;10.172;2024-03-17T04:36:57;3.50;;;3.20;;
7983;SDS011;4037;47.980;10.172;2024-03-17T04:39:24;2.70;;;2.40;;
7983;SDS011;4037;47.980;10.172;2024-03-17T04:41:50;2.93;;;2.63;;
7983;SDS011;4037;47.980;10.172;2024-03-17T04:44:16;3.97;;;2.50;;
7983;SDS011;4037;47.980;10.172;2024-03-17T04:46:43;2.90;;;2.60;;
7983;SDS011;4037;47.980;10.172;2024-03-17T04:49:09;3.33;;;3.03;;
7983;SDS011;4037;47.980;10.172;2024-03-17T04:51:35;4.07;;;2.80;;
7983;SDS011;4037;47.980;10.172;2024-03-17T04:54:01;4.07;;;2.70;;
7983;SDS011;4037;47.980;10.172;2024-03-17T04:56:28;3.23;;;2.90;;
7983;SDS011;4037;47.980;10.172;2024-03-17T04:58:54;3.23;;;2.90;;
7983;SDS011;4037;47.980;10.172;2024-03-17T05:01:21;3.50;;;3.20;;
7983;SDS011;4037;47.980;10.172;2024-03-17T05:03:47;2.77;;;2.57;;
7983;SDS011;4037;47.980;10.172;2024-03-17T05:06:13;4.73;;;3.17;;
7983;SDS011;4037;47.980;10.172;2024-03-17T05:08:39;3.07;;;2.80;;
7983;SDS011;4037;47.980;10.172;2024-03-17T05:11:05;3.27;;;2.97;;
7983;SDS011;4037;47.980;10.172;2024-03-17T05:13:35;3.80;;;3.33;;
7983;SDS011;4037;47.980;10.172;2024-03-17T05:16:04;4.40;;;3.00;;
7983;SDS011;4037;47.980;10.172;2024-03-17T05:18:30;3.83;;;3.30;;
7983;SDS011;4037;47.980;10.172;2024-03-17T05:21:01;3.63;;;3.00;;
7983;SDS011;4037;47.980;10.172;2024-03-17T05:23:28;3.47;;;2.97;;
7983;SDS011;4037;47.980;10.172;2024-03-17T05:25:55;5.33;;;3.53;;
7983;SDS011;4037;47.980;10.172;2024-03-17T05:28:21;3.40;;;3.10;;
7983;SDS011;4037;47.980;10.172;2024-03-17T05:30:48;3.93;;;3.20;;
7983;SDS011;4037;47.980;10.172;2024-03-17T05:33:15;4.10;;;3.50;;
7983;SDS011;4037;47.980;10.172;2024-03-17T05:35:47;4.30;;;3.67;;
7983;SDS011;4037;47.980;10.172;2024-03-17T05:38:14;4.10;;;3.63;;
7983;SDS011;4037;47.980;10.172;2024-03-17T05:40:40;5.70;;;3.57;;
7983;SDS011;4037;47.980;10.172;2024-03-17T05:43:06;3.93;;;3.13;;
7983;SDS011;4037;47.980;10.172;2024-03-17T05:45:32;3.80;;;3.40;;
7983;SDS011;4037;47.980;10.172;2024-03-17T05:47:58;3.60;;;3.13;;
7983;SDS011;4037;47.980;10.172;2024-03-17T05:50:29;3.97;;;3.00;;
7983;SDS011;4037;47.980;10.172;2024-03-17T05:52:55;3.60;;;3.30;;
7983;SDS011;4037;47.980;10.172;2024-03-17T05:55:21;4.80;;;3.20;;
7983;SDS011;4037;47.980;10.172;2024-03-17T05:57:47;7.03;;;3.67;;
7983;SDS011;4037;47.980;10.172;2024-03-17T06:00:13;3.93;;;3.60;;
7983;SDS011;4037;47.980;10.172;2024-03-17T06:02:40;4.03;;;3.20;;
7983;SDS011;4037;47.980;10.172;2024-03-17T06:05:06;4.10;;;3.63;;
7983;SDS011;4037;47.980;10.172;2024-03-17T06:07:35;4.00;;;3.17;;
7983;SDS011;4037;47.980;10.172;2024-03-17T06:10:01;4.20;;;3.07;;
7983;SDS011;4037;47.980;10.172;2024-03-17T06:12:27;3.50;;;3.20;;
7983;SDS011;4037;47.980;10.172;2024-03-17T06:14:53;3.50;;;3.20;;
7983;SDS011;4037;47.980;10.172;2024-03-17T06:17:19;4.73;;;3.20;;
7983;SDS011;4037;47.980;10.172;2024-03-17T06:19:45;4.20;;;3.30;;
7983;SDS011;4037;47.980;10.172;2024-03-17T06:22:11;3.83;;;3.07;;
7983;SDS011;4037;47.980;10.172;2024-03-17T06:24:37;3.33;;;3.03;;
7983;SDS011;4037;47.980;10.172;2024-03-17T06:27:05;3.93;;;3.63;;
7983;SDS011;4037;47.980;10.172;2024-03-17T06:29:34;3.70;;;3.40;;
7983;SDS011;4037;47.980;10.172;2024-03-17T06:32:00;4.83;;;3.83;;
7983;SDS011;4037;47.980;10.172;2024-03-17T06:34:27;3.83;;;3.53;;
7983;SDS011;4037;47.980;10.172;2024-03-17T06:36:53;4.63;;;3.63;;
7983;SDS011;4037;47.980;10.172;2024-03-17T06:39:19;5.57;;;4.03;;
7983;SDS011;4037;47.980;10.172;2024-03-17T06:41:46;6.07;;;5.47;;
7983;SDS011;4037;47.980;10.172;2024-03-17T06:44:12;5.83;;;5.17;;
7983;SDS011;4037;47.980;10.172;2024-03-17T06:46:38;5.40;;;4.90;;
7983;SDS011;4037;47.980;10.172;2024-03-17T06:49:07;4.33;;;3.90;;
7983;SDS011;4037;47.980;10.172;2024-03-17T06:51:33;4.73;;;4.13;;
7983;SDS011;4037;47.980;10.172;2024-03-17T06:53:59;8.80;;;7.17;;
7983;SDS011;4037;47.980;10.172;2024-03-17T06:56:25;8.30;;;6.70;;
7983;SDS011;4037;47.980;10.172;2024-03-17T06:58:51;5.87;;;4.80;;
7983;SDS011;4037;47.980;10.172;2024-03-17T07:01:17;4.70;;;4.13;;
7983;SDS011;4037;47.980;10.172;2024-03-17T07:03:44;4.10;;;3.70;;
7983;SDS011;4037;47.980;10.172;2024-03-17T07:06:10;5.90;;;3.13;;
7983;SDS011;4037;47.980;10.172;2024-03-17T07:08:36;4.93;;;3.50;;
7983;SDS011;4037;47.980;10.172;2024-03-17T07:11:03;4.77;;;4.37;;
7983;SDS011;4037;47.980;10.172;2024-03-17T07:13:31;5.30;;;3.73;;
7983;SDS011;4037;47.980;10.172;2024-03-17T07:15:57;4.77;;;3.03;;
7983;SDS011;4037;47.980;10.172;2024-03-17T07:18:27;3.73;;;3.33;;
7983;SDS011;4037;47.980;10.172;2024-03-17T07:20:55;3.67;;;2.87;;
7983;SDS011;4037;47.980;10.172;2024-03-17T07:23:22;2.77;;;2.57;;
7983;SDS011;4037;47.980;10.172;2024-03-17T07:25:54;2.90;;;2.63;;
7983;SDS011;4037;47.980;10.172;2024-03-17T07:28:20;2.60;;;2.40;;
7983;SDS011;4037;47.980;10.172;2024-03-17T07:33:16;2.17;;;1.93;;
7983;SDS011;4037;47.980;10.172;2024-03-17T07:38:14;2.57;;;2.07;;
7983;SDS011;4037;47.980;10.172;2024-03-17T07:40:40;2.30;;;2.10;;
7983;SDS011;4037;47.980;10.172;2024-03-17T07:43:07;2.67;;;2.03;;
7983;SDS011;4037;47.980;10.172;2024-03-17T07:45:33;2.20;;;2.00;;
7983;SDS011;4037;47.980;10.172;2024-03-17T07:47:59;2.30;;;2.10;;
7983;SDS011;4037;47.980;10.172;2024-03-17T07:50:25;4.80;;;2.13;;
7983;SDS011;4037;47.980;10.172;2024-03-17T07:52:52;2.97;;;2.20;;
7983;SDS011;4037;47.980;10.172;2024-03-17T07:55:18;2.27;;;2.00;;
7983;SDS011;4037;47.980;10.172;2024-03-17T07:57:43;2.90;;;2.20;;
7983;SDS011;4037;47.980;10.172;2024-03-17T08:00:10;3.40;;;3.10;;
7983;SDS011;4037;47.980;10.172;2024-03-17T08:02:47;4.73;;;2.37;;
7983;SDS011;4037;47.980;10.172;2024-03-17T08:05:13;4.30;;;1.83;;
7983;SDS011;4037;47.980;10.172;2024-03-17T08:07:39;3.57;;;2.57;;
7983;SDS011;4037;47.980;10.172;2024-03-17T08:10:07;4.13;;;2.67;;
7983;SDS011;4037;47.980;10.172;2024-03-17T08:12:33;3.60;;;2.60;;
7983;SDS011;4037;47.980;10.172;2024-03-17T08:14:59;5.33;;;2.70;;
7983;SDS011;4037;47.980;10.172;2024-03-17T08:17:25;4.13;;;3.10;;
7983;SDS011;4037;47.980;10.172;2024-03-17T08:19:51;3.93;;;2.97;;
7983;SDS011;4037;47.980;10.172;2024-03-17T08:22:18;4.90;;;2.93;;
7983;SDS011;4037;47.980;10.172;2024-03-17T08:24:44;4.07;;;2.03;;
7983;SDS011;4037;47.980;10.172;2024-03-17T08:27:10;2.90;;;2.20;;
7983;SDS011;4037;47.980;10.172;2024-03-17T08:29:36;2.03;;;1.80;;
7983;SDS011;4037;47.980;10.172;2024-03-17T08:32:02;2.70;;;1.83;;
7983;SDS011;4037;47.980;10.172;2024-03-17T08:34:28;1.80;;;1.63;;
7983;SDS011;4037;47.980;10.172;2024-03-17T08:36:54;2.70;;;1.90;;
7983;SDS011;4037;47.980;10.172;2024-03-17T08:39:21;2.57;;;2.07;;
7983;SDS011;4037;47.980;10.172;2024-03-17T08:41:47;2.10;;;1.83;;
7983;SDS011;4037;47.980;10.172;2024-03-17T08:44:13;2.43;;;1.90;;
7983;SDS011;4037;47.980;10.172;2024-03-17T08:46:39;2.10;;;1.77;;
7983;SDS011;4037;47.980;10.172;2024-03-17T08:49:05;1.40;;;1.30;;
7983;SDS011;4037;47.980;10.172;2024-03-17T08:51:31;3.00;;;1.40;;
7983;SDS011;4037;47.980;10.172;2024-03-17T08:53:57;2.23;;;1.60;;
7983;SDS011;4037;47.980;10.172;2024-03-17T08:56:23;2.83;;;1.80;;
7983;SDS011;4037;47.980;10.172;2024-03-17T08:58:49;1.87;;;1.70;;
7983;SDS011;4037;47.980;10.172;2024-03-17T09:01:15;1.50;;;1.33;;
7983;SDS011;4037;47.980;10.172;2024-03-17T09:03:41;1.70;;;1.60;;
7983;SDS011;4037;47.980;10.172;2024-03-17T09:06:14;4.70;;;1.80;;
7983;SDS011;4037;47.980;10.172;2024-03-17T09:08:41;3.13;;;1.50;;
7983;SDS011;4037;47.980;10.172;2024-03-17T09:11:11;3.23;;;1.77;;
7983;SDS011;4037;47.980;10.172;2024-03-17T09:13:38;8.00;;;2.27;;
7983;SDS011;4037;47.980;10.172;2024-03-17T09:16:04;2.50;;;2.10;;
7983;SDS011;4037;47.980;10.172;2024-03-17T09:18:31;2.63;;;1.80;;
7983;SDS011;4037;47.980;10.172;2024-03-17T09:21:01;2.47;;;2.07;;
7983;SDS011;4037;47.980;10.172;2024-03-17T09:23:28;3.93;;;1.80;;
7983;SDS011;4037;47.980;10.172;2024-03-17T09:26:04;3.37;;;2.07;;
7983;SDS011;4037;47.980;10.172;2024-03-17T09:28:31;1.90;;;1.57;;
7983;SDS011;4037;47.980;10.172;2024-03-17T09:30:57;2.70;;;1.57;;
7983;SDS011;4037;47.980;10.172;2024-03-17T09:33:24;1.63;;;1.50;;
7983;SDS011;4037;47.980;10.172;2024-03-17T09:38:20;3.17;;;1.17;;
7983;SDS011;4037;47.980;10.172;2024-03-17T09:40:49;2.20;;;1.40;;
7983;SDS011;4037;47.980;10.172;2024-03-17T09:43:22;2.93;;;1.80;;
7983;SDS011;4037;47.980;10.172;2024-03-17T09:45:48;1.73;;;1.30;;
7983;SDS011;4037;47.980;10.172;2024-03-17T09:48:16;1.70;;;1.50;;
7983;SDS011;4037;47.980;10.172;2024-03-17T09:50:44;1.63;;;1.40;;
7983;SDS011;4037;47.980;10.172;2024-03-17T09:53:14;1.90;;;1.50;;
7983;SDS011;4037;47.980;10.172;2024-03-17T09:55:43;2.90;;;1.60;;
7983;SDS011;4037;47.980;10.172;2024-03-17T09:58:14;2.20;;;1.23;;
7983;SDS011;4037;47.980;10.172;2024-03-17T10:00:41;2.10;;;1.23;;
7983;SDS011;4037;47.980;10.172;2024-03-17T10:03:07;2.10;;;1.17;;
7983;SDS011;4037;47.980;10.172;2024-03-17T10:05:33;3.37;;;1.60;;
7983;SDS011;4037;47.980;10.172;2024-03-17T10:07:59;1.40;;;1.30;;
7983;SDS011;4037;47.980;10.172;2024-03-17T10:10:25;1.37;;;1.20;;
7983;SDS011;4037;47.980;10.172;2024-03-17T10:12:52;4.77;;;1.40;;
7983;SDS011;4037;47.980;10.172;2024-03-17T10:15:18;4.03;;;1.30;;
7983;SDS011;4037;47.980;10.172;2024-03-17T10:17:49;3.03;;;1.27;;
7983;SDS011;4037;47.980;10.172;2024-03-17T10:20:19;2.67;;;1.80;;
7983;SDS011;4037;47.980;10.172;2024-03-17T10:23:01;6.30;;;2.10;;
7983;SDS011;4037;47.980;10.172;2024-03-17T10:25:28;3.20;;;1.63;;
7983;SDS011;4037;47.980;10.172;2024-03-17T10:27:55;3.03;;;1.30;;
7983;SDS011;4037;47.980;10.172;2024-03-17T10:30:24;2.67;;;1.80;;
7983;SDS011;4037;47.980;10.172;2024-03-17T10:32:58;1.90;;;1.53;;
7983;SDS011;4037;47.980;10.172;2024-03-17T10:35:29;2.73;;;1.50;;
7983;SDS011;4037;47.980;10.172;2024-03-17T10:37:56;3.00;;;1.50;;
7983;SDS011;4037;47.980;10.172;2024-03-17T10:40:24;4.77;;;2.20;;
7983;SDS011;4037;47.980;10.172;2024-03-17T10:42:50;2.80;;;1.50;;
7983;SDS011;4037;47.980;10.172;2024-03-17T10:45:16;4.47;;;1.63;;
7983;SDS011;4037;47.980;10.172;2024-03-17T10:47:49;1.77;;;1.47;;
7983;SDS011;4037;47.980;10.172;2024-03-17T10:50:24;2.80;;;1.53;;
7983;SDS011;4037;47.980;10.172;2024-03-17T10:52:50;2.53;;;1.57;;
7983;SDS011;4037;47.980;10.172;2024-03-17T10:55:21;2.37;;;1.33;;
7983;SDS011;4037;47.980;10.172;2024-03-17T10:57:53;3.47;;;1.50;;
7983;SDS011;4037;47.980;10.172;2024-03-17T11:00:23;4.10;;;1.67;;
7983;SDS011;4037;47.980;10.172;2024-03-17T11:02:52;3.47;;;1.80;;
7983;SDS011;4037;47.980;10.172;2024-03-17T11:05:25;4.07;;;1.03;;
7983;SDS011;4037;47.980;10.172;2024-03-17T11:07:55;3.37;;;1.77;;
7983;SDS011;4037;47.980;10.172;2024-03-17T11:10:22;3.90;;;1.37;;
7983;SDS011;4037;47.980;10.172;2024-03-17T11:12:55;3.40;;;1.10;;
7983;SDS011;4037;47.980;10.172;2024-03-17T11:17:55;2.60;;;1.30;;
7983;SDS011;4037;47.980;10.172;2024-03-17T11:20:26;2.00;;;1.60;;
7983;SDS011;4037;47.980;10.172;2024-03-17T11:22:54;3.20;;;2.47;;
7983;SDS011;4037;47.980;10.172;2024-03-17T11:27:55;9.00;;;3.10;;
7983;SDS011;4037;47.980;10.172;2024-03-17T11:36:29;3.77;;;1.73;;
7983;SDS011;4037;47.980;10.172;2024-03-17T11:41:30;3.23;;;1.43;;
7983;SDS011;4037;47.980;10.172;2024-03-17T11:46:43;7.70;;;1.43;;
7983;SDS011;4037;47.980;10.172;2024-03-17T11:49:51;2.50;;;1.47;;
7983;SDS011;4037;47.980;10.172;2024-03-17T11:52:02;1.83;;;1.20;;
7983;SDS011;4037;47.980;10.172;2024-03-17T11:54:29;1.77;;;1.30;;
7983;SDS011;4037;47.980;10.172;2024-03-17T11:56:56;2.77;;;1.53;;
7983;SDS011;4037;47.980;10.172;2024-03-17T11:59:22;2.93;;;1.10;;
7983;SDS011;4037;47.980;10.172;2024-03-17T12:01:49;1.67;;;1.23;;
7983;SDS011;4037;47.980;10.172;2024-03-17T12:04:15;2.10;;;1.50;;
7983;SDS011;4037;47.980;10.172;2024-03-17T12:06:48;1.93;;;1.40;;
7983;SDS011;4037;47.980;10.172;2024-03-17T12:09:24;1.57;;;1.40;;
7983;SDS011;4037;47.980;10.172;2024-03-17T12:11:51;5.13;;;1.50;;
7983;SDS011;4037;47.980;10.172;2024-03-17T12:14:18;1.10;;;1.00;;
7983;SDS011;4037;47.980;10.172;2024-03-17T12:16:54;2.77;;;1.33;;
7983;SDS011;4037;47.980;10.172;2024-03-17T12:19:21;2.60;;;1.70;;
7983;SDS011;4037;47.980;10.172;2024-03-17T12:21:48;1.70;;;1.20;;
7983;SDS011;4037;47.980;10.172;2024-03-17T12:24:19;5.20;;;1.43;;
7983;SDS011;4037;47.980;10.172;2024-03-17T12:26:45;2.57;;;1.60;;
7983;SDS011;4037;47.980;10.172;2024-03-17T12:29:31;3.27;;;1.70;;
7983;SDS011;4037;47.980;10.172;2024-03-17T12:34:36;4.03;;;1.50;;
7983;SDS011;4037;47.980;10.172;2024-03-17T12:37:02;2.73;;;1.10;;
7983;SDS011;4037;47.980;10.172;2024-03-17T12:39:32;1.43;;;1.17;;
7983;SDS011;4037;47.980;10.172;2024-03-17T12:42:02;2.17;;;1.30;;
7983;SDS011;4037;47.980;10.172;2024-03-17T12:44:29;2.70;;;1.40;;
7983;SDS011;4037;47.980;10.172;2024-03-17T12:46:58;2.37;;;1.30;;
7983;SDS011;4037;47.980;10.172;2024-03-17T12:49:25;1.63;;;1.20;;
7983;SDS011;4037;47.980;10.172;2024-03-17T12:51:52;2.57;;;1.93;;
7983;SDS011;4037;47.980;10.172;2024-03-17T12:54:19;3.40;;;1.47;;
7983;SDS011;4037;47.980;10.172;2024-03-17T12:56:45;3.97;;;1.50;;
7983;SDS011;4037;47.980;10.172;2024-03-17T12:59:40;2.80;;;1.40;;
7983;SDS011;4037;47.980;10.172;2024-03-17T13:02:25;2.47;;;1.30;;
7983;SDS011;4037;47.980;10.172;2024-03-17T13:07:37;2.93;;;1.10;;
7983;SDS011;4037;47.980;10.172;2024-03-17T13:10:04;2.20;;;1.40;;
7983;SDS011;4037;47.980;10.172;2024-03-17T13:12:32;1.37;;;1.03;;
7983;SDS011;4037;47.980;10.172;2024-03-17T13:14:58;1.90;;;1.10;;
7983;SDS011;4037;47.980;10.172;2024-03-17T13:17:24;2.80;;;1.30;;
7983;SDS011;4037;47.980;10.172;2024-03-17T13:19:50;1.90;;;1.17;;
7983;SDS011;4037;47.980;10.172;2024-03-17T13:22:16;2.50;;;1.23;;
7983;SDS011;4037;47.980;10.172;2024-03-17T13:24:42;2.77;;;1.37;;
7983;SDS011;4037;47.980;10.172;2024-03-17T13:27:08;2.03;;;1.17;;
7983;SDS011;4037;47.980;10.172;2024-03-17T13:29:34;3.47;;;1.30;;
7983;SDS011;4037;47.980;10.172;2024-03-17T13:32:04;3.83;;;1.83;;
7983;SDS011;4037;47.980;10.172;2024-03-17T13:34:30;1.50;;;0.90;;
7983;SDS011;4037;47.980;10.172;2024-03-17T13:36:56;2.13;;;1.50;;
7983;SDS011;4037;47.980;10.172;2024-03-17T13:39:22;1.63;;;1.10;;
7983;SDS011;4037;47.980;10.172;2024-03-17T13:41:49;4.20;;;1.50;;
7983;SDS011;4037;47.980;10.172;2024-03-17T13:44:17;4.20;;;1.20;;
7983;SDS011;4037;47.980;10.172;2024-03-17T13:46:44;3.23;;;1.30;;
7983;SDS011;4037;47.980;10.172;2024-03-17T13:49:10;2.10;;;1.30;;
7983;SDS011;4037;47.980;10.172;2024-03-17T13:51:36;3.20;;;1.53;;
7983;SDS011;4037;47.980;10.172;2024-03-17T13:54:02;1.87;;;1.00;;
7983;SDS011;4037;47.980;10.172;2024-03-17T13:56:28;3.33;;;1.40;;
7983;SDS011;4037;47.980;10.172;2024-03-17T13:58:54;4.17;;;1.27;;
7983;SDS011;4037;47.980;10.172;2024-03-17T14:01:20;4.00;;;1.30;;
7983;SDS011;4037;47.980;10.172;2024-03-17T14:03:46;3.17;;;1.20;;
7983;SDS011;4037;47.980;10.172;2024-03-17T14:06:12;1.80;;;1.40;;
7983;SDS011;4037;47.980;10.172;2024-03-17T14:08:38;2.37;;;1.50;;
7983;SDS011;4037;47.980;10.172;2024-03-17T14:11:04;1.77;;;1.30;;
7983;SDS011;4037;47.980;10.172;2024-03-17T14:13:30;3.83;;;1.47;;
7983;SDS011;4037;47.980;10.172;2024-03-17T14:15:57;2.73;;;1.43;;
7983;SDS011;4037;47.980;10.172;2024-03-17T14:18:23;2.63;;;1.33;;
7983;SDS011;4037;47.980;10.172;2024-03-17T14:20:49;3.23;;;1.17;;
7983;SDS011;4037;47.980;10.172;2024-03-17T14:23:15;3.27;;;1.33;;
7983;SDS011;4037;47.980;10.172;2024-03-17T14:25:41;3.30;;;1.53;;
7983;SDS011;4037;47.980;10.172;2024-03-17T14:28:07;3.50;;;1.83;;
7983;SDS011;4037;47.980;10.172;2024-03-17T14:30:34;4.87;;;1.30;;
7983;SDS011;4037;47.980;10.172;2024-03-17T14:33:00;4.20;;;1.20;;
7983;SDS011;4037;47.980;10.172;2024-03-17T14:35:26;1.40;;;1.10;;
7983;SDS011;4037;47.980;10.172;2024-03-17T14:37:52;1.50;;;1.30;;
7983;SDS011;4037;47.980;10.172;2024-03-17T14:40:19;3.83;;;1.50;;
7983;SDS011;4037;47.980;10.172;2024-03-17T14:42:48;2.03;;;1.40;;
7983;SDS011;4037;47.980;10.172;2024-03-17T14:45:14;4.17;;;1.57;;
7983;SDS011;4037;47.980;10.172;2024-03-17T14:47:40;2.63;;;1.50;;
7983;SDS011;4037;47.980;10.172;2024-03-17T14:50:07;1.30;;;1.20;;
7983;SDS011;4037;47.980;10.172;2024-03-17T14:52:33;3.90;;;1.20;;
7983;SDS011;4037;47.980;10.172;2024-03-17T14:55:00;2.83;;;1.63;;
7983;SDS011;4037;47.980;10.172;2024-03-17T14:57:26;3.27;;;1.20;;
7983;SDS011;4037;47.980;10.172;2024-03-17T14:59:52;4.13;;;1.20;;
7983;SDS011;4037;47.980;10.172;2024-03-17T15:02:18;3.60;;;1.43;;
7983;SDS011;4037;47.980;10.172;2024-03-17T15:04:44;3.00;;;1.10;;
7983;SDS011;4037;47.980;10.172;2024-03-17T15:07:10;3.97;;;1.50;;
7983;SDS011;4037;47.980;10.172;2024-03-17T15:09:37;3.03;;;1.40;;
7983;SDS011;4037;47.980;10.172;2024-03-17T15:12:05;3.17;;;1.47;;
7983;SDS011;4037;47.980;10.172;2024-03-17T15:14:32;4.60;;;1.60;;
7983;SDS011;4037;47.980;10.172;2024-03-17T15:16:58;2.47;;;1.60;;
7983;SDS011;4037;47.980;10.172;2024-03-17T15:19:24;4.07;;;1.40;;
7983;SDS011;4037;47.980;10.172;2024-03-17T15:21:50;4.27;;;1.67;;
7983;SDS011;4037;47.980;10.172;2024-03-17T15:24:16;4.77;;;1.63;;
7983;SDS011;4037;47.980;10.172;2024-03-17T15:26:42;5.27;;;1.90;;
7983;SDS011;4037;47.980;10.172;2024-03-17T15:29:08;3.30;;;1.43;;
7983;SDS011;4037;47.980;10.172;2024-03-17T15:31:37;1.50;;;1.20;;